Time;durP1;ratioP1;P1;durP2;ratioP2;P2;SDS_P1;SDS_P2;PMS_P1;PMS_P2;Temp;Humidity;BMP_temperature;BMP_pressure;BME280_temperature;BME280_humidity;BME280_pressure;Samples;Min_cycle;Max_cycle;Signal;HPM_P1;HPM_P2
2022/01/23 00:00:45;;;;;;;25.17;17.17;;;1.30;99.90;;;;;;4950122;28;20063;-60
2022/01/23 00:03:17;;;;;;;20.92;15.82;;;1.40;99.90;;;;;;4949811;29;20049;-60
2022/01/23 00:05:48;;;;;;;20.85;14.75;;;1.30;99.90;;;;;;4950154;29;20035;-60
2022/01/23 00:08:17;;;;;;;27.77;18.65;;;1.30;99.90;;;;;;4952455;28;20071;-60
2022/01/23 00:10:43;;;;;;;23.77;16.88;;;1.30;99.90;;;;;;4951759;28;20027;-60
2022/01/23 00:13:26;;;;;;;22.85;16.55;;;1.30;99.90;;;;;;4950140;29;20476;-60
2022/01/23 00:18:36;;;;;;;21.92;16.15;;;1.10;99.90;;;;;;4949873;29;20030;-60
2022/01/23 00:21:02;;;;;;;19.95;15.68;;;1.00;99.90;;;;;;4951840;29;20031;-60
2022/01/23 00:30:19;;;;;;;22.17;16.00;;;1.00;99.90;;;;;;4951085;28;20007;-60
2022/01/23 00:31:49;;;;;;;22.80;16.73;;;1.10;99.90;;;;;;4952120;28;20086;-60
2022/01/23 00:34:15;;;;;;;36.50;30.20;;;1.00;99.90;;;;;;4949082;29;20035;-57
2022/01/23 00:36:41;;;;;;;26.80;20.33;;;0.90;99.90;;;;;;4949704;29;20029;-59
2022/01/23 00:39:07;;;;;;;24.65;18.90;;;0.80;99.90;;;;;;4950033;28;20054;-60
2022/01/23 00:41:32;;;;;;;22.90;17.67;;;0.80;99.90;;;;;;4950521;29;20027;-60
2022/01/23 00:43:59;;;;;;;20.80;16.92;;;0.80;99.90;;;;;;4952721;29;20139;-60
2022/01/23 00:46:32;;;;;;;22.65;16.80;;;0.90;99.90;;;;;;4949610;29;20049;-60
2022/01/23 00:51:26;;;;;;;25.83;17.13;;;0.80;99.90;;;;;;4941010;29;19910;-60
2022/01/23 00:53:53;;;;;;;22.40;16.52;;;0.70;99.90;;;;;;4950055;29;20487;-59
2022/01/23 00:56:19;;;;;;;24.08;18.00;;;0.90;99.90;;;;;;4951927;28;20105;-60
2022/01/23 00:58:45;;;;;;;20.73;17.10;;;0.80;99.90;;;;;;4951057;29;20476;-59
2022/01/23 01:01:12;;;;;;;24.83;17.73;;;0.70;99.90;;;;;;4949249;28;20511;-60
2022/01/23 01:03:38;;;;;;;23.02;17.05;;;0.70;99.90;;;;;;4949387;29;20519;-60
2022/01/23 01:06:04;;;;;;;24.35;18.00;;;0.80;99.90;;;;;;4950996;29;20019;-59
2022/01/23 01:08:30;;;;;;;25.33;19.05;;;0.80;99.90;;;;;;4950873;28;20409;-60
2022/01/23 01:13:23;;;;;;;27.55;19.90;;;0.80;99.90;;;;;;4949258;29;20365;-59
2022/01/23 01:16:33;;;;;;;20.75;15.65;;;0.80;99.90;;;;;;4947811;29;20047;-59
2022/01/23 01:33:15;;;;;;;;;;;0.70;99.90;;;;;;4950756;29;20042;-60
2022/01/23 01:35:32;;;;;;;24.42;16.85;;;0.70;99.90;;;;;;4950342;28;20442;-60
2022/01/23 01:37:58;;;;;;;22.35;16.52;;;0.80;99.90;;;;;;4952595;29;20039;-59
2022/01/23 01:40:25;;;;;;;22.98;17.40;;;0.60;99.90;;;;;;4949013;29;20058;-60
2022/01/23 01:42:52;;;;;;;20.55;16.17;;;0.60;99.90;;;;;;4948910;28;20039;-60
2022/01/23 01:45:22;;;;;;;21.52;16.70;;;0.70;99.90;;;;;;4953154;28;20051;-60
2022/01/23 01:47:50;;;;;;;24.70;17.60;;;0.60;99.90;;;;;;4952331;29;20031;-60
2022/01/23 01:50:16;;;;;;;22.30;16.95;;;0.60;99.90;;;;;;4954833;28;20031;-60
2022/01/23 01:52:42;;;;;;;25.27;18.90;;;0.50;99.90;;;;;;4954179;29;20034;-60
2022/01/23 01:55:11;;;;;;;24.58;19.70;;;0.40;99.90;;;;;;4952372;29;20043;-60
2022/01/23 01:57:44;;;;;;;22.83;19.70;;;0.30;99.90;;;;;;4952630;29;20284;-60
2022/01/23 02:00:14;;;;;;;24.65;18.60;;;0.40;99.90;;;;;;4952338;28;20059;-59
2022/01/23 02:10:38;;;;;;;29.85;23.73;;;0.30;99.90;;;;;;4953551;29;20226;-60
2022/01/23 02:13:13;;;;;;;26.00;20.58;;;0.20;99.90;;;;;;4951806;29;20444;-60
2022/01/23 02:18:26;;;;;;;33.90;26.65;;;0.30;99.90;;;;;;4952128;28;20024;-59
2022/01/23 02:51:11;;;;;;;24.77;20.40;;;0.10;99.90;;;;;;4952211;29;20049;-60
2022/01/23 02:54:06;;;;;;;27.40;21.40;;;0.10;99.90;;;;;;4936705;29;20094;-60
2022/01/23 02:56:33;;;;;;;24.77;20.88;;;0.10;99.90;;;;;;4953359;28;20042;-60
2022/01/23 02:59:10;;;;;;;27.58;21.77;;;0.10;99.90;;;;;;4954242;29;20412;-59
2022/01/23 03:01:46;;;;;;;27.67;21.58;;;0.00;99.90;;;;;;4952384;29;20027;-60
2022/01/23 03:04:12;;;;;;;28.60;21.80;;;0.10;99.90;;;;;;4952567;29;20031;-60
2022/01/23 03:14:25;;;;;;;27.02;21.30;;;0.00;99.90;;;;;;4954287;28;20169;-60
2022/01/23 03:25:22;;;;;;;24.65;19.85;;;0.20;99.90;;;;;;4950967;29;20042;-59
2022/01/23 03:30:22;;;;;;;26.40;20.83;;;0.10;99.90;;;;;;4950533;29;20079;-60
2022/01/23 03:32:50;;;;;;;28.15;22.02;;;0.20;99.90;;;;;;4950707;29;20032;-60
2022/01/23 03:35:17;;;;;;;28.80;20.80;;;0.10;99.90;;;;;;4952955;28;20054;-60
2022/01/23 03:37:44;;;;;;;26.85;22.02;;;0.10;99.90;;;;;;4952480;28;20494;-60
2022/01/23 03:40:11;;;;;;;28.88;22.23;;;0.20;99.90;;;;;;4950379;29;20046;-59
2022/01/23 03:42:40;;;;;;;25.80;22.00;;;0.20;99.90;;;;;;4951403;28;20396;-60
2022/01/23 03:47:52;;;;;;;30.70;23.45;;;0.10;99.90;;;;;;4951234;28;20071;-60
2022/01/23 03:50:18;;;;;;;28.15;23.10;;;0.20;99.90;;;;;;4952392;29;20173;-60
2022/01/23 03:52:44;;;;;;;30.67;24.83;;;0.00;99.90;;;;;;4951660;29;20106;-60
2022/01/23 03:55:10;;;;;;;28.73;23.52;;;0.00;99.90;;;;;;4949530;29;20047;-60
2022/01/23 03:57:36;;;;;;;31.60;23.80;;;0.00;99.90;;;;;;4949702;29;20027;-61
2022/01/23 04:00:05;;;;;;;38.03;28.60;;;0.00;99.90;;;;;;4950210;29;20110;-60
2022/01/23 04:02:31;;;;;;;35.70;30.42;;;0.00;99.90;;;;;;4951058;28;20086;-61
2022/01/23 04:04:56;;;;;;;33.85;26.85;;;-0.10;99.90;;;;;;4953269;29;20031;-61
2022/01/23 04:07:26;;;;;;;31.02;26.50;;;-0.30;99.90;;;;;;4949464;28;20031;-61
2022/01/23 04:09:52;;;;;;;34.05;24.30;;;-0.30;99.90;;;;;;4949712;29;20042;-61
2022/01/23 04:15:25;;;;;;;29.00;23.33;;;-0.20;99.90;;;;;;4949904;29;20047;-62
2022/01/23 05:04:50;;;;;;;32.13;25.13;;;-1.10;99.90;;;;;;4873566;29;20509;-61
2022/01/23 05:07:17;;;;;;;33.03;27.33;;;-1.40;99.90;;;;;;4863686;29;20053;-61
2022/01/23 05:09:43;;;;;;;33.22;25.15;;;-1.30;99.90;;;;;;4861058;29;20070;-62
2022/01/23 05:12:11;;;;;;;33.38;24.60;;;-1.20;99.90;;;;;;4861426;29;20045;-62
2022/01/23 05:14:42;;;;;;;34.33;25.45;;;-1.20;99.90;;;;;;4857496;29;20606;-61
2022/01/23 05:17:11;;;;;;;28.45;23.95;;;-1.10;99.90;;;;;;4871908;29;20037;-61
2022/01/23 05:19:38;;;;;;;84.60;63.53;;;-1.00;99.90;;;;;;4861548;29;20514;-62
2022/01/23 05:24:56;;;;;;;60.85;48.10;;;-1.30;99.90;;;;;;4864721;29;20073;-60
2022/01/23 05:27:23;;;;;;;46.10;36.83;;;-1.50;99.90;;;;;;4865292;29;20044;-59
2022/01/23 05:29:49;;;;;;;38.92;30.05;;;-1.50;99.90;;;;;;4862002;29;20445;-62
2022/01/23 05:32:15;;;;;;;38.05;29.08;;;-1.60;99.90;;;;;;4862702;29;20034;-61
2022/01/23 05:34:44;;;;;;;40.63;31.77;;;-1.70;99.90;;;;;;4864910;29;20118;-61
2022/01/23 05:37:09;;;;;;;51.47;39.42;;;-1.70;99.90;;;;;;4864289;29;20054;-61
2022/01/23 05:39:35;;;;;;;36.47;30.40;;;-1.60;99.90;;;;;;4864592;29;20388;-65
2022/01/23 05:42:09;;;;;;;33.60;27.70;;;-1.50;99.90;;;;;;4916738;29;20078;-65
2022/01/23 05:44:39;;;;;;;37.30;28.52;;;-1.50;99.90;;;;;;4952857;28;20047;-65
2022/01/23 05:47:07;;;;;;;31.02;26.48;;;-1.50;99.90;;;;;;4956681;29;20463;-65
2022/01/23 05:49:34;;;;;;;35.00;26.60;;;-1.60;99.90;;;;;;4952550;29;20374;-64
2022/01/23 05:52:01;;;;;;;31.33;26.08;;;-1.60;99.90;;;;;;4952430;28;20082;-63
2022/01/23 05:54:26;;;;;;;30.42;25.92;;;-1.30;99.90;;;;;;4952040;29;20118;-65
2022/01/23 05:56:53;;;;;;;38.22;27.35;;;-1.30;99.90;;;;;;4952611;29;20107;-65
2022/01/23 05:59:20;;;;;;;34.60;25.88;;;-1.40;99.90;;;;;;4954689;28;20543;-61
2022/01/23 06:01:46;;;;;;;31.52;26.55;;;-1.40;99.90;;;;;;4953822;28;20039;-60
2022/01/23 06:04:13;;;;;;;34.55;25.63;;;-1.20;99.90;;;;;;4952435;29;20051;-61
2022/01/23 06:06:38;;;;;;;34.88;25.35;;;-1.20;99.90;;;;;;4950939;29;20027;-61
2022/01/23 06:09:05;;;;;;;34.97;25.15;;;-1.20;99.90;;;;;;4951988;29;20400;-61
2022/01/23 06:11:30;;;;;;;32.80;26.25;;;-1.30;99.90;;;;;;4953352;28;20043;-60
2022/01/23 06:13:56;;;;;;;30.25;24.17;;;-1.30;99.90;;;;;;4954819;29;20504;-59
2022/01/23 06:16:22;;;;;;;36.75;28.35;;;-1.30;99.90;;;;;;4952056;29;20035;-61
2022/01/23 06:18:47;;;;;;;39.60;31.60;;;-1.40;99.90;;;;;;4953379;29;20023;-61
2022/01/23 06:21:18;;;;;;;36.22;29.67;;;-1.30;99.90;;;;;;4951873;29;20476;-60
2022/01/23 06:23:44;;;;;;;35.35;27.80;;;-1.20;99.90;;;;;;4951607;29;20043;-61
2022/01/23 06:26:10;;;;;;;35.30;27.88;;;-1.00;99.90;;;;;;4955703;28;20035;-59
2022/01/23 06:29:00;;;;;;;39.22;28.40;;;-0.80;99.90;;;;;;4952477;29;20407;-61
2022/01/23 06:31:26;;;;;;;35.22;26.55;;;-1.00;99.90;;;;;;4951417;29;20030;-61
2022/01/23 06:33:52;;;;;;;40.78;32.78;;;-1.00;99.90;;;;;;4951547;29;20028;-60
2022/01/23 06:36:17;;;;;;;37.53;30.92;;;-1.00;99.90;;;;;;4951154;28;20042;-61
2022/01/23 06:38:43;;;;;;;44.20;37.78;;;-1.10;99.90;;;;;;4951720;29;20043;-60
2022/01/23 06:41:09;;;;;;;41.33;33.60;;;-1.10;99.90;;;;;;4955605;28;20091;-61
2022/01/23 06:43:35;;;;;;;37.50;28.75;;;-1.20;99.90;;;;;;4953536;29;20563;-60
2022/01/23 06:46:01;;;;;;;40.63;32.03;;;-1.30;99.90;;;;;;4951318;28;20051;-60
2022/01/23 06:48:27;;;;;;;37.72;29.30;;;-1.40;99.90;;;;;;4951198;29;20023;-61
2022/01/23 06:50:52;;;;;;;36.80;28.25;;;-1.40;99.90;;;;;;4951324;29;20034;-61
2022/01/23 06:53:18;;;;;;;37.10;27.75;;;-1.50;99.90;;;;;;4953815;29;20395;-61
2022/01/23 06:55:44;;;;;;;49.17;36.30;;;-1.30;99.90;;;;;;4953184;29;20496;-61
2022/01/23 06:58:10;;;;;;;41.88;32.95;;;-1.30;99.90;;;;;;4952738;29;20012;-60
2022/01/23 07:00:35;;;;;;;33.25;26.60;;;-1.30;99.90;;;;;;4951142;29;20035;-61
2022/01/23 07:03:01;;;;;;;33.92;26.10;;;-1.40;99.90;;;;;;4951010;29;20019;-61
2022/01/23 07:05:27;;;;;;;31.90;24.48;;;-1.40;99.90;;;;;;4952713;28;20047;-61
2022/01/23 07:07:53;;;;;;;28.58;23.13;;;-1.10;99.90;;;;;;4953306;29;20019;-61
2022/01/23 07:10:21;;;;;;;31.48;24.48;;;-1.10;99.90;;;;;;4950810;28;20484;-61
2022/01/23 07:12:47;;;;;;;29.10;23.83;;;-1.10;99.90;;;;;;4951044;29;20058;-61
2022/01/23 07:15:12;;;;;;;31.88;23.85;;;-1.20;99.90;;;;;;4950929;29;20114;-61
2022/01/23 07:17:40;;;;;;;30.95;23.60;;;-1.20;99.90;;;;;;4951131;28;20115;-61
2022/01/23 07:20:06;;;;;;;29.75;23.38;;;-1.10;99.90;;;;;;4954669;28;20073;-61
2022/01/23 07:22:32;;;;;;;28.90;23.67;;;-1.10;99.90;;;;;;4950739;28;20066;-61
2022/01/23 07:25:01;;;;;;;29.25;24.48;;;-1.20;99.90;;;;;;4951230;29;20058;-61
2022/01/23 07:27:30;;;;;;;28.17;22.02;;;-1.20;99.90;;;;;;4950578;29;20015;-61
2022/01/23 07:29:56;;;;;;;30.13;22.70;;;-1.10;99.90;;;;;;4950667;28;20042;-61
2022/01/23 07:32:22;;;;;;;31.73;24.95;;;-1.00;99.90;;;;;;4952942;28;20023;-61
2022/01/23 07:34:47;;;;;;;34.00;25.05;;;-1.20;99.90;;;;;;4951983;29;20050;-61
2022/01/23 07:37:15;;;;;;;32.20;23.80;;;-1.20;99.90;;;;;;4952224;28;20051;-62
2022/01/23 07:39:41;;;;;;;30.58;24.90;;;-1.20;99.90;;;;;;4950180;29;20038;-61
2022/01/23 07:42:07;;;;;;;29.98;23.73;;;-1.10;99.90;;;;;;4949603;28;20094;-60
2022/01/23 07:44:33;;;;;;;33.63;26.58;;;-1.20;99.90;;;;;;4951242;28;20413;-62
2022/01/23 07:46:59;;;;;;;29.15;22.80;;;-1.10;99.90;;;;;;4953259;29;20059;-61
2022/01/23 07:49:25;;;;;;;30.58;22.45;;;-1.00;99.90;;;;;;4950286;29;20034;-62
2022/01/23 07:51:51;;;;;;;30.60;23.30;;;-0.90;99.90;;;;;;4950252;29;20517;-61
2022/01/23 07:54:17;;;;;;;25.75;20.95;;;-0.50;99.90;;;;;;4950160;29;20066;-61
2022/01/23 07:56:43;;;;;;;26.25;19.73;;;0.10;99.90;;;;;;4950399;29;20055;-61
2022/01/23 07:59:09;;;;;;;21.33;17.58;;;0.80;99.90;;;;;;4954182;28;20046;-61
2022/01/23 08:01:39;;;;;;;19.23;15.43;;;1.20;99.90;;;;;;4950724;28;20036;-61
2022/01/23 08:04:06;;;;;;;18.63;14.55;;;1.70;99.90;;;;;;4949563;28;20032;-60
2022/01/23 08:06:33;;;;;;;21.90;16.65;;;2.10;99.90;;;;;;4949995;29;20043;-60
2022/01/23 08:08:59;;;;;;;19.45;16.15;;;2.00;99.90;;;;;;4949888;29;20028;-61
2022/01/23 08:11:25;;;;;;;17.15;14.32;;;1.90;99.90;;;;;;4950798;29;20031;-60
2022/01/23 08:13:51;;;;;;;17.40;15.35;;;2.50;99.90;;;;;;4951799;29;20031;-60
2022/01/23 08:16:17;;;;;;;20.15;14.75;;;2.60;99.90;;;;;;4951043;28;20039;-61
2022/01/23 08:18:42;;;;;;;20.77;17.77;;;3.00;99.90;;;;;;4949609;29;20105;-61
2022/01/23 08:21:08;;;;;;;17.13;15.30;;;3.00;99.90;;;;;;4949670;29;20500;-61
2022/01/23 08:23:38;;;;;;;17.75;14.68;;;3.60;99.90;;;;;;4950563;28;20151;-63
2022/01/23 08:26:03;;;;;;;16.52;14.55;;;3.60;99.90;;;;;;4953649;29;20149;-62
2022/01/23 08:28:29;;;;;;;13.95;11.85;;;4.00;99.90;;;;;;4949412;29;20099;-62
2022/01/23 08:30:55;;;;;;;14.48;12.30;;;4.40;99.90;;;;;;4949605;28;20033;-63
2022/01/23 08:33:20;;;;;;;14.40;12.00;;;4.50;99.90;;;;;;4949640;29;20070;-61
2022/01/23 08:35:46;;;;;;;14.38;10.43;;;4.60;99.90;;;;;;4949650;28;20067;-62
2022/01/23 08:38:13;;;;;;;14.18;10.88;;;5.60;99.90;;;;;;4951358;28;20024;-61
2022/01/23 08:43:15;;;;;;;15.10;11.80;;;5.10;99.90;;;;;;4950044;29;20106;-61
2022/01/23 08:45:41;;;;;;;22.25;20.05;;;5.60;99.90;;;;;;4949403;28;20051;-60
2022/01/23 08:48:08;;;;;;;16.25;14.40;;;6.20;99.90;;;;;;4948945;29;20408;-60
2022/01/23 08:50:34;;;;;;;58.33;47.00;;;6.60;99.90;;;;;;4950228;29;20083;-61
2022/01/23 08:53:00;;;;;;;26.38;22.23;;;5.90;99.90;;;;;;4954117;28;20428;-61
2022/01/23 08:55:26;;;;;;;14.10;10.63;;;6.20;99.90;;;;;;4954756;29;20103;-60
2022/01/23 08:57:51;;;;;;;11.40;10.25;;;5.90;99.90;;;;;;4953323;29;20031;-60
2022/01/23 09:00:18;;;;;;;13.65;11.85;;;7.10;99.90;;;;;;4953111;29;20404;-60
2022/01/23 09:02:44;;;;;;;11.07;9.85;;;6.90;99.90;;;;;;4953583;28;20103;-61
2022/01/23 09:05:10;;;;;;;12.63;10.10;;;6.50;99.90;;;;;;4956704;28;20123;-60
2022/01/23 09:07:36;;;;;;;10.93;9.05;;;6.70;99.90;;;;;;4953926;29;20078;-61
2022/01/23 09:10:03;;;;;;;12.20;8.70;;;6.50;99.90;;;;;;4953243;28;20031;-61
2022/01/23 09:15:06;;;;;;;12.68;10.23;;;6.00;99.90;;;;;;4953039;28;20039;-61
2022/01/23 09:17:32;;;;;;;11.88;10.38;;;7.00;99.90;;;;;;4954175;28;20039;-61
2022/01/23 09:19:58;;;;;;;12.23;9.95;;;7.70;99.90;;;;;;4956139;29;20408;-61
2022/01/23 09:22:27;;;;;;;14.15;11.68;;;7.90;99.90;;;;;;4952920;28;20031;-61
2022/01/23 09:24:52;;;;;;;13.63;9.73;;;8.70;99.90;;;;;;4952921;28;20031;-60
2022/01/23 09:27:19;;;;;;;12.35;8.55;;;7.90;99.90;;;;;;4952783;29;20461;-61
2022/01/23 09:29:49;;;;;;;12.10;9.30;;;8.90;99.90;;;;;;4952785;29;20071;-60
2022/01/23 09:32:17;;;;;;;13.13;9.27;;;8.80;99.90;;;;;;4955438;28;20031;-60
2022/01/23 09:34:44;;;;;;;16.25;12.32;;;8.50;99.90;;;;;;4955031;29;20027;-60
2022/01/23 09:37:12;;;;;;;13.73;11.02;;;9.00;99.90;;;;;;4952683;29;20075;-61
2022/01/23 09:39:41;;;;;;;14.77;10.48;;;9.30;99.90;;;;;;4952061;29;20504;-61
2022/01/23 09:42:13;;;;;;;15.10;10.00;;;9.60;99.90;;;;;;4953074;29;20031;-63
2022/01/23 09:45:00;;;;;;;10.55;8.57;;;10.50;99.90;;;;;;4937318;29;20027;-60
2022/01/23 09:47:27;;;;;;;9.95;8.40;;;10.60;99.90;;;;;;4954512;28;20063;-59
2022/01/23 09:49:55;;;;;;;9.73;8.23;;;10.40;99.90;;;;;;4954963;29;20113;-60
2022/01/23 09:52:21;;;;;;;10.07;6.80;;;9.50;99.90;;;;;;4952527;28;20592;-61
2022/01/23 09:54:57;;;;;;;8.80;6.75;;;9.90;99.90;;;;;;4952259;28;20048;-62
2022/01/23 09:57:28;;;;;;;10.77;6.97;;;9.60;99.90;;;;;;4952249;28;20028;-61
2022/01/23 09:59:55;;;;;;;9.20;6.15;;;10.40;99.90;;;;;;4951612;28;20071;-61
2022/01/23 10:02:23;;;;;;;9.55;7.03;;;10.40;99.90;;;;;;4954929;28;20024;-60
2022/01/23 10:04:50;;;;;;;8.77;6.70;;;11.70;99.80;;;;;;4953343;28;20027;-62
2022/01/23 10:07:16;;;;;;;8.40;6.50;;;10.40;99.90;;;;;;4952084;28;20035;-61
2022/01/23 10:09:42;;;;;;;9.27;7.00;;;9.90;99.90;;;;;;4950622;29;20427;-61
2022/01/23 10:12:11;;;;;;;8.90;6.60;;;11.30;99.20;;;;;;4953513;28;20031;-60
2022/01/23 10:14:37;;;;;;;9.32;6.53;;;11.80;99.20;;;;;;4936390;29;20373;-60
2022/01/23 10:17:07;;;;;;;8.07;6.20;;;10.80;98.90;;;;;;4955763;29;20034;-60
2022/01/23 10:19:33;;;;;;;10.40;7.72;;;11.00;99.00;;;;;;4951697;28;20027;-60
2022/01/23 10:22:00;;;;;;;9.00;7.00;;;10.40;99.50;;;;;;4951882;28;20063;-61
2022/01/23 10:24:28;;;;;;;8.98;7.07;;;9.70;99.90;;;;;;4951640;28;20031;-61
2022/01/23 10:26:57;;;;;;;10.95;7.40;;;9.90;99.90;;;;;;4952244;29;20386;-60
2022/01/23 10:29:36;;;;;;;11.00;7.70;;;10.60;99.80;;;;;;4953638;29;20027;-61
2022/01/23 10:32:12;;;;;;;7.85;6.80;;;9.80;99.90;;;;;;4955450;29;20078;-60
2022/01/23 10:34:46;;;;;;;8.95;6.63;;;10.10;99.90;;;;;;4952660;29;20110;-59
2022/01/23 10:37:22;;;;;;;8.82;6.90;;;11.30;99.50;;;;;;4952898;28;20492;-64
2022/01/23 10:39:47;;;;;;;8.43;7.03;;;11.60;98.90;;;;;;4951367;28;20030;-61
2022/01/23 10:50:51;;;;;;;8.02;6.65;;;11.20;98.40;;;;;;4939013;29;20046;-63
2022/01/23 10:53:17;;;;;;;8.30;6.35;;;11.00;99.70;;;;;;4953791;28;20035;-64
2022/01/23 10:55:47;;;;;;;8.88;6.47;;;11.90;98.30;;;;;;4952586;28;20042;-63
2022/01/23 10:58:21;;;;;;;9.15;6.80;;;11.40;98.00;;;;;;4950630;29;20028;-62
2022/01/23 11:00:47;;;;;;;7.85;6.00;;;10.50;99.90;;;;;;4950250;28;20429;-63
2022/01/23 11:03:22;;;;;;;8.13;6.30;;;10.30;99.90;;;;;;4945420;29;20166;-63
2022/01/23 11:05:50;;;;;;;6.95;6.05;;;9.70;99.90;;;;;;4943137;29;20024;-64
2022/01/23 11:08:30;;;;;;;8.88;5.88;;;9.80;99.90;;;;;;4953187;28;20026;-64
2022/01/23 11:11:07;;;;;;;6.60;5.55;;;10.20;99.90;;;;;;4953659;28;20031;-63
2022/01/23 11:19:39;;;;;;;6.30;5.57;;;11.20;99.90;;;;;;4950612;29;20033;-63
2022/01/23 11:22:06;;;;;;;7.63;5.78;;;12.20;99.60;;;;;;4950664;28;20041;-63
2022/01/23 11:24:38;;;;;;;7.03;5.65;;;10.90;99.90;;;;;;4950620;28;20477;-63
2022/01/23 11:27:07;;;;;;;8.30;5.93;;;10.30;99.90;;;;;;4950264;28;20720;-64
2022/01/23 11:29:32;;;;;;;9.10;5.88;;;10.40;99.90;;;;;;4952028;28;20039;-64
2022/01/23 11:31:59;;;;;;;9.02;5.53;;;10.30;99.90;;;;;;4954540;29;20448;-64
2022/01/23 11:34:28;;;;;;;7.88;5.63;;;11.40;99.90;;;;;;4950228;28;20047;-64
2022/01/23 11:36:54;;;;;;;7.93;5.60;;;11.10;99.90;;;;;;4950224;28;20073;-63
2022/01/23 11:39:36;;;;;;;6.97;4.88;;;11.80;99.90;;;;;;4950195;28;20596;-63
2022/01/23 11:56:25;;;;;;;5.00;4.32;;;11.60;99.90;;;;;;4951853;29;20050;-64
2022/01/23 11:58:54;;;;;;;6.15;4.68;;;12.50;98.80;;;;;;4950062;29;20035;-66
2022/01/23 12:01:26;;;;;;;10.57;8.60;;;12.50;98.40;;;;;;4950157;29;20054;-65
2022/01/23 12:04:11;;;;;;;10.55;8.13;;;11.40;99.20;;;;;;4950087;29;20064;-64
2022/01/23 12:06:40;;;;;;;8.32;4.65;;;11.50;99.50;;;;;;4950103;29;20038;-64
2022/01/23 12:09:17;;;;;;;6.65;4.82;;;11.60;99.20;;;;;;4950639;29;20027;-66
2022/01/23 12:17:12;;;;;;;7.28;4.90;;;11.00;99.60;;;;;;4875262;29;20537;-64
2022/01/23 12:19:50;;;;;;;5.95;4.20;;;10.20;99.90;;;;;;4875175;29;20041;-61
2022/01/23 12:22:37;;;;;;;5.50;3.80;;;11.20;99.70;;;;;;4874195;29;20397;-61
2022/01/23 12:25:08;;;;;;;5.18;4.00;;;11.30;99.50;;;;;;4872718;29;20097;-62
2022/01/23 12:27:34;;;;;;;5.80;4.07;;;11.50;99.00;;;;;;4884896;29;20041;-61
2022/01/23 12:30:18;;;;;;;5.88;4.10;;;11.20;99.30;;;;;;4893618;29;20406;-66
2022/01/23 12:32:43;;;;;;;;;;;11.80;99.30;;;;;;4879346;29;20028;-66
2022/01/23 12:35:10;;;;;;;6.88;3.60;;;11.90;99.10;;;;;;4894501;29;19928;-64
2022/01/23 12:38:02;;;;;;;6.28;3.63;;;12.00;98.10;;;;;;4893347;29;20044;-65
2022/01/23 12:40:31;;;;;;;5.60;3.75;;;12.10;98.60;;;;;;4892590;29;20043;-64
2022/01/23 12:43:04;;;;;;;5.05;3.67;;;11.10;99.10;;;;;;4893387;29;20435;-65
2022/01/23 12:45:56;;;;;;;6.07;3.80;;;11.10;98.90;;;;;;4892916;29;20104;-65
2022/01/23 12:48:25;;;;;;;5.57;3.40;;;10.60;99.30;;;;;;4892981;29;20858;-65
2022/01/23 12:50:59;;;;;;;5.40;3.35;;;10.70;99.90;;;;;;4933671;29;20060;-62
2022/01/23 12:53:51;;;;;;;5.30;3.92;;;11.30;98.90;;;;;;4951309;28;20030;-61
2022/01/23 12:56:30;;;;;;;5.38;3.92;;;11.30;99.60;;;;;;4952118;28;20035;-64
2022/01/23 12:59:07;;;;;;;4.85;3.33;;;11.20;99.70;;;;;;4945946;29;20444;-66
2022/01/23 13:01:34;;;;;;;5.22;3.55;;;11.00;98.80;;;;;;4945127;29;20058;-66
2022/01/23 13:04:04;;;;;;;5.20;3.25;;;10.80;99.70;;;;;;4946447;29;20028;-65
2022/01/23 13:06:36;;;;;;;6.47;3.50;;;10.70;98.80;;;;;;4944211;29;20377;-64
2022/01/23 13:09:33;;;;;;;4.95;3.22;;;10.90;99.90;;;;;;4944789;28;20034;-64
2022/01/23 13:31:47;;;;;;;5.13;3.33;;;10.60;99.60;;;;;;4946773;29;20132;-64
2022/01/23 13:34:32;;;;;;;4.47;3.03;;;10.50;99.60;;;;;;4944152;28;20038;-63
2022/01/23 13:37:09;;;;;;;6.15;3.60;;;10.50;99.90;;;;;;4946150;28;20675;-66
2022/01/23 13:39:46;;;;;;;4.05;3.08;;;10.80;99.50;;;;;;4941084;28;20381;-64
2022/01/23 13:59:27;;;;;;;9.43;6.20;;;10.60;99.90;;;;;;4947049;29;20055;-61
2022/01/23 14:04:24;;;;;;;18.67;14.27;;;10.70;99.10;;;;;;4951328;29;20488;-62
2022/01/23 14:06:50;;;;;;;5.30;3.25;;;11.40;99.80;;;;;;4953166;28;20114;-60
2022/01/23 14:09:17;;;;;;;6.10;4.60;;;11.10;99.10;;;;;;4949532;29;20031;-60
2022/01/23 14:11:45;;;;;;;5.95;3.35;;;11.10;99.70;;;;;;4949144;29;20032;-59
2022/01/23 14:14:21;;;;;;;7.45;4.55;;;10.90;99.80;;;;;;4948673;28;20015;-60
2022/01/23 14:16:50;;;;;;;5.40;3.40;;;11.00;99.90;;;;;;4950518;29;20572;-59
2022/01/23 14:19:29;;;;;;;4.80;3.95;;;10.60;99.90;;;;;;4952199;29;20031;-61
2022/01/23 14:21:59;;;;;;;7.80;4.43;;;10.80;99.90;;;;;;4951765;28;20050;-62
2022/01/23 14:24:30;;;;;;;4.90;3.85;;;10.80;99.90;;;;;;4952013;28;20102;-65
2022/01/23 14:27:01;;;;;;;4.28;3.15;;;10.60;99.50;;;;;;4951280;28;20161;-64
2022/01/23 14:29:29;;;;;;;4.13;2.90;;;10.30;99.90;;;;;;4953555;28;20504;-66
2022/01/23 14:32:14;;;;;;;5.50;3.30;;;10.30;99.90;;;;;;4954033;29;20106;-64
2022/01/23 14:34:41;;;;;;;4.90;3.20;;;10.30;99.90;;;;;;4952393;29;20098;-64
2022/01/23 14:37:07;;;;;;;5.25;3.22;;;9.90;99.90;;;;;;4951889;28;20031;-66
2022/01/23 14:39:34;;;;;;;6.75;3.65;;;10.00;99.90;;;;;;4951462;28;20027;-64
2022/01/23 14:42:15;;;;;;;4.60;2.80;;;10.30;99.90;;;;;;4951578;28;20031;-65
2022/01/23 14:44:41;;;;;;;4.88;2.92;;;10.40;99.90;;;;;;4937772;29;20011;-64
2022/01/23 14:47:09;;;;;;;5.18;3.15;;;10.40;99.90;;;;;;4951228;29;20144;-64
2022/01/23 14:49:37;;;;;;;5.05;3.53;;;10.20;99.90;;;;;;4951000;28;20047;-64
2022/01/23 14:52:09;;;;;;;4.93;3.20;;;10.40;99.90;;;;;;4950949;28;20445;-64
2022/01/23 14:54:35;;;;;;;5.78;3.80;;;10.30;99.90;;;;;;4951623;28;20035;-64
2022/01/23 14:57:03;;;;;;;5.38;2.80;;;10.20;99.90;;;;;;4951225;28;20031;-64
2022/01/23 14:59:30;;;;;;;5.25;3.10;;;10.30;99.90;;;;;;4953027;28;20019;-66
2022/01/23 15:01:57;;;;;;;4.82;3.15;;;10.40;99.90;;;;;;4954026;29;20397;-65
2022/01/23 15:04:23;;;;;;;10.02;7.30;;;10.30;99.90;;;;;;4950371;29;20065;-65
2022/01/23 15:06:52;;;;;;;5.60;3.60;;;10.40;99.90;;;;;;4951152;28;20050;-65
2022/01/23 15:09:19;;;;;;;8.80;4.80;;;10.20;99.90;;;;;;4949777;28;20031;-66
2022/01/23 15:11:46;;;;;;;8.75;6.55;;;10.20;99.90;;;;;;4951054;28;20131;-64
2022/01/23 15:14:12;;;;;;;8.48;7.35;;;10.20;99.90;;;;;;4954275;28;20023;-65
2022/01/23 15:16:39;;;;;;;5.50;3.90;;;10.30;99.90;;;;;;4951891;28;20046;-64
2022/01/23 15:19:06;;;;;;;5.65;3.60;;;10.30;99.90;;;;;;4950419;28;20505;-64
2022/01/23 15:21:33;;;;;;;7.90;3.90;;;10.20;99.90;;;;;;4950737;28;20028;-64
2022/01/23 15:23:58;;;;;;;6.47;4.15;;;10.10;99.90;;;;;;4952694;28;20357;-64
2022/01/23 15:26:28;;;;;;;4.78;3.35;;;10.10;99.90;;;;;;4952878;29;20050;-64
2022/01/23 15:28:54;;;;;;;7.75;4.00;;;10.00;99.90;;;;;;4952970;29;20158;-64
2022/01/23 15:31:20;;;;;;;7.18;5.10;;;10.00;99.90;;;;;;4950044;28;20110;-66
2022/01/23 15:33:45;;;;;;;5.53;4.03;;;10.10;99.90;;;;;;4974348;28;20031;-65
2022/01/23 15:36:11;;;;;;;4.63;3.53;;;10.10;99.90;;;;;;4950596;29;20035;-64
2022/01/23 15:38:42;;;;;;;7.15;4.00;;;9.90;99.90;;;;;;4951368;29;20027;-65
2022/01/23 15:41:08;;;;;;;6.05;4.13;;;9.80;99.90;;;;;;4954564;28;20370;-65
2022/01/23 15:43:34;;;;;;;16.25;9.75;;;9.80;99.90;;;;;;4950275;28;20063;-65
2022/01/23 15:46:00;;;;;;;11.20;7.00;;;9.80;99.90;;;;;;4950837;28;20032;-65
2022/01/23 15:48:30;;;;;;;15.73;10.88;;;9.80;99.90;;;;;;4949830;28;20456;-67
2022/01/23 15:50:56;;;;;;;44.47;25.83;;;9.60;99.90;;;;;;4950581;29;20059;-65
2022/01/23 15:53:22;;;;;;;4.75;3.72;;;9.60;99.90;;;;;;4952614;28;20031;-66
2022/01/23 15:55:49;;;;;;;48.33;26.90;;;9.50;99.90;;;;;;4952072;29;20098;-65
2022/01/23 15:58:15;;;;;;;215.07;109.13;;;9.60;99.90;;;;;;4950415;29;20110;-64
2022/01/23 16:00:40;;;;;;;88.45;43.83;;;9.50;99.90;;;;;;4950017;29;20115;-64
2022/01/23 16:03:06;;;;;;;31.17;17.42;;;9.50;99.90;;;;;;4949245;28;20463;-66
2022/01/23 16:05:32;;;;;;;14.40;8.07;;;9.40;99.90;;;;;;4951651;28;20031;-66
2022/01/23 16:07:58;;;;;;;14.55;8.70;;;9.30;99.90;;;;;;4952659;29;20032;-65
2022/01/23 16:10:24;;;;;;;203.73;101.97;;;9.30;99.90;;;;;;4949792;28;20038;-65
2022/01/23 16:12:50;;;;;;;128.43;66.05;;;9.30;99.90;;;;;;4949763;29;20042;-66
2022/01/23 16:15:16;;;;;;;85.55;45.78;;;9.30;99.90;;;;;;4949696;29;20396;-66
2022/01/23 16:17:43;;;;;;;127.80;65.70;;;9.20;99.90;;;;;;4950288;29;20110;-66
2022/01/23 16:20:10;;;;;;;96.30;52.92;;;9.20;99.90;;;;;;4953931;28;20015;-66
2022/01/23 16:22:37;;;;;;;110.75;57.95;;;9.00;99.90;;;;;;4949862;29;20027;-65
2022/01/23 16:25:05;;;;;;;69.50;34.58;;;9.00;99.90;;;;;;4950313;29;20063;-64
2022/01/23 16:27:31;;;;;;;18.73;9.73;;;8.90;99.90;;;;;;4950773;29;20035;-65